Time;durP1;ratioP1;P1;durP2;ratioP2;P2;SDS_P1;SDS_P2;PMS_P1;PMS_P2;Temp;Humidity;BMP_temperature;BMP_pressure;BME280_temperature;BME280_humidity;BME280_pressure;Samples;Min_cycle;Max_cycle;Signal;HPM_P1;HPM_P2
2022/05/30 00:01:53;;;;;;;;;;;8.60;99.90;;;;;;5052224;28;19927;-50
2022/05/30 00:04:18;;;;;;;;;;;8.60;99.90;;;;;;5052892;28;19927;-50
2022/05/30 00:06:44;;;;;;;;;;;8.70;99.90;;;;;;5052599;28;20344;-54
2022/05/30 00:09:13;;;;;;;;;;;8.70;99.90;;;;;;5052568;28;19959;-53
2022/05/30 00:11:39;;;;;;;;;;;8.70;99.90;;;;;;5052586;28;19904;-56
2022/05/30 00:14:05;;;;;;;;;;;8.70;99.90;;;;;;5052200;28;19905;-51
2022/05/30 00:16:30;;;;;;;;;;;8.70;99.90;;;;;;5052193;28;19905;-52
2022/05/30 00:18:57;;;;;;;;;;;8.70;99.90;;;;;;5053027;28;19954;-50
2022/05/30 00:21:24;;;;;;;;;;;8.70;99.90;;;;;;5051888;28;19954;-51
2022/05/30 00:23:53;;;;;;;;;;;8.80;99.90;;;;;;5052219;28;19917;-47
2022/05/30 00:26:19;;;;;;;;;;;8.80;99.90;;;;;;5051923;28;20355;-51
2022/05/30 00:28:44;;;;;;;;;;;8.80;99.90;;;;;;5052379;28;19951;-48
2022/05/30 00:31:11;;;;;;;;;;;8.80;99.90;;;;;;5052344;28;19911;-53
2022/05/30 00:33:37;;;;;;;;;;;8.70;99.90;;;;;;5051425;28;20339;-49
2022/05/30 00:36:03;;;;;;;;;;;8.60;99.90;;;;;;5051426;28;19909;-54
2022/05/30 00:38:28;;;;;;;;;;;8.60;99.90;;;;;;5084442;28;19909;-50
2022/05/30 00:40:54;;;;;;;;;;;8.50;99.90;;;;;;5051919;28;19943;-51
2022/05/30 00:43:32;;;;;;;;;;;8.40;99.90;;;;;;5051495;28;19951;-52
2022/05/30 00:45:59;;;;;;;;;;;8.30;99.90;;;;;;5051582;28;19998;-49
2022/05/30 00:48:30;;;;;;;;;;;8.20;99.90;;;;;;5051637;28;20004;-49
2022/05/30 00:50:59;;;;;;;;;;;8.10;99.90;;;;;;5051879;28;19911;-50
2022/05/30 00:53:25;;;;;;;;;;;8.00;99.90;;;;;;5051653;28;19905;-50
2022/05/30 00:55:50;;;;;;;;;;;8.00;99.90;;;;;;5050947;28;19912;-53
2022/05/30 00:58:18;;;;;;;;;;;7.90;99.90;;;;;;5050470;28;19963;-51
2022/05/30 01:00:43;;;;;;;;;;;7.80;99.90;;;;;;5050143;28;19905;-51
2022/05/30 01:08:38;;;;;;;;;;;7.60;99.90;;;;;;5051484;28;20412;-49
2022/05/30 01:11:03;;;;;;;;;;;7.60;99.90;;;;;;5051597;28;19909;-52
2022/05/30 01:13:29;;;;;;;;;;;7.50;99.90;;;;;;5051509;28;19904;-51
2022/05/30 01:15:55;;;;;;;;;;;7.40;99.90;;;;;;5051052;28;19932;-48
2022/05/30 01:18:24;;;;;;;;;;;7.30;99.90;;;;;;5051065;28;19909;-55
2022/05/30 01:20:49;;;;;;;;;;;7.20;99.90;;;;;;5050579;28;20413;-51
2022/05/30 01:23:33;;;;;;;;;;;7.20;99.90;;;;;;5051027;28;19917;-50
2022/05/30 01:26:26;;;;;;;;;;;7.10;99.90;;;;;;5049908;28;19987;-48
2022/05/30 01:28:55;;;;;;;;;;;7.00;99.90;;;;;;5050956;28;20446;-50
2022/05/30 01:31:21;;;;;;;;;;;7.00;99.90;;;;;;5051233;28;19958;-49
2022/05/30 01:33:46;;;;;;;;;;;7.00;99.90;;;;;;5051332;28;19954;-52
2022/05/30 01:36:12;;;;;;;;;;;6.90;99.90;;;;;;5051439;28;19905;-48
2022/05/30 01:38:38;;;;;;;;;;;6.80;99.90;;;;;;5051271;28;20422;-47
2022/05/30 01:41:04;;;;;;;;;;;6.80;99.90;;;;;;5051234;28;19909;-50
2022/05/30 01:43:30;;;;;;;;;;;6.70;99.90;;;;;;5051218;28;19909;-50
2022/05/30 01:45:55;;;;;;;;;;;6.70;99.90;;;;;;5051204;28;19926;-52
2022/05/30 01:48:22;;;;;;;;;;;6.70;99.90;;;;;;5051383;28;20418;-48
2022/05/30 01:50:47;;;;;;;;;;;6.80;99.90;;;;;;5051046;28;19908;-49
2022/05/30 01:53:13;;;;;;;;;;;6.80;99.90;;;;;;5051400;28;20405;-49
2022/05/30 01:55:39;;;;;;;;;;;6.70;99.90;;;;;;5051378;28;19905;-47
2022/05/30 01:58:05;;;;;;;;;;;6.60;99.90;;;;;;5050866;28;19948;-50
2022/05/30 02:00:30;;;;;;;;;;;6.50;99.90;;;;;;5051156;28;19987;-48
2022/05/30 02:02:56;;;;;;;;;;;6.50;99.90;;;;;;5051055;28;19953;-56
2022/05/30 02:05:22;;;;;;;;;;;6.50;99.90;;;;;;5051366;28;19912;-48
2022/05/30 02:07:47;;;;;;;;;;;6.40;99.90;;;;;;5051056;28;19905;-50
2022/05/30 02:10:13;;;;;;;;;;;6.40;99.90;;;;;;5050891;28;19999;-51
2022/05/30 02:12:38;;;;;;;;;;;6.40;99.90;;;;;;5052289;28;20363;-47
2022/05/30 02:15:04;;;;;;;;;;;6.40;99.90;;;;;;5054949;28;20379;-48
2022/05/30 02:17:32;;;;;;;;;;;6.50;99.90;;;;;;5054577;28;19908;-50
2022/05/30 02:19:57;;;;;;;;;;;6.40;99.90;;;;;;5054779;28;19931;-53
2022/05/30 02:22:24;;;;;;;;;;;6.40;99.90;;;;;;5054691;28;19900;-50
2022/05/30 02:25:12;;;;;;;;;;;6.40;99.90;;;;;;5054516;28;19988;-51
2022/05/30 02:27:38;;;;;;;;;;;6.40;99.90;;;;;;5054459;28;19987;-53
2022/05/30 02:30:04;;;;;;;;;;;6.40;99.90;;;;;;5054554;28;19919;-50
2022/05/30 02:32:29;;;;;;;;;;;6.40;99.90;;;;;;5054400;28;19901;-51
2022/05/30 02:37:39;;;;;;;;;;;6.20;99.90;;;;;;5054338;28;19916;-48
2022/05/30 02:40:05;;;;;;;;;;;6.20;99.90;;;;;;5054203;28;19909;-52
2022/05/30 02:42:30;;;;;;;;;;;6.20;99.90;;;;;;5054529;28;19904;-50
2022/05/30 02:44:56;;;;;;;;;;;6.30;99.90;;;;;;5054255;28;20384;-50
2022/05/30 02:47:22;;;;;;;;;;;6.20;99.90;;;;;;5051799;28;19909;-49
2022/05/30 02:49:47;;;;;;;;;;;6.20;99.90;;;;;;5053146;28;19975;-50
2022/05/30 02:52:13;;;;;;;;;;;6.10;99.90;;;;;;5054410;28;20364;-52
2022/05/30 02:54:39;;;;;;;;;;;6.10;99.90;;;;;;5054124;28;19904;-52
2022/05/30 02:57:05;;;;;;;;;;;6.10;99.90;;;;;;5052488;28;19912;-52
2022/05/30 02:59:30;;;;;;;;;;;6.00;99.90;;;;;;5054207;28;20521;-49
2022/05/30 03:01:56;;;;;;;;;;;5.90;99.90;;;;;;5053995;28;20003;-49
2022/05/30 03:04:21;;;;;;;;;;;5.90;99.90;;;;;;5053996;28;20374;-52
2022/05/30 03:06:48;;;;;;;;;;;5.90;99.90;;;;;;5053774;28;19930;-52
2022/05/30 03:09:14;;;;;;;;;;;5.80;99.90;;;;;;5052468;28;19904;-55
2022/05/30 03:11:39;;;;;;;;;;;5.90;99.90;;;;;;5053879;28;19978;-50
2022/05/30 03:14:05;;;;;;;;;;;5.80;99.90;;;;;;5053940;28;19905;-50
2022/05/30 03:16:31;;;;;;;;;;;5.80;99.90;;;;;;5053697;28;19909;-51
2022/05/30 03:18:56;;;;;;;;;;;5.80;99.90;;;;;;5053623;28;19915;-49
2022/05/30 03:21:22;;;;;;;;;;;5.80;99.90;;;;;;5053516;28;19971;-50
2022/05/30 03:23:47;;;;;;;;;;;5.80;99.90;;;;;;5052672;28;19955;-50
2022/05/30 03:26:14;;;;;;;;;;;5.80;99.90;;;;;;5053525;28;19905;-49
2022/05/30 03:28:40;;;;;;;;;;;5.80;99.90;;;;;;5053513;28;20269;-51
2022/05/30 03:31:09;;;;;;;;;;;5.80;99.90;;;;;;5053376;28;19905;-52
2022/05/30 03:33:35;;;;;;;;;;;5.90;99.90;;;;;;5053127;28;20296;-53
2022/05/30 03:36:01;;;;;;;;;;;5.90;99.90;;;;;;5053230;28;19912;-53
2022/05/30 03:38:26;;;;;;;;;;;6.00;99.90;;;;;;5052284;28;19909;-56
2022/05/30 03:40:52;;;;;;;;;;;6.00;99.90;;;;;;5053361;28;20375;-48
2022/05/30 03:43:17;;;;;;;;;;;6.10;99.90;;;;;;5053711;28;20378;-52
2022/05/30 03:45:43;;;;;;;;;;;6.20;99.90;;;;;;5053763;28;19905;-50
2022/05/30 03:48:10;;;;;;;;;;;6.40;99.90;;;;;;5053239;28;19905;-51
2022/05/30 03:50:37;;;;;;;;;;;6.40;99.90;;;;;;5052998;28;19912;-51
2022/05/30 03:53:05;;;;;;;;;;;6.50;99.90;;;;;;5052008;28;19937;-51
2022/05/30 03:55:32;;;;;;;;;;;6.60;99.90;;;;;;5051608;28;19905;-49
2022/05/30 03:57:57;;;;;;;;;;;6.60;99.90;;;;;;5052147;28;20042;-51
2022/05/30 04:00:23;;;;;;;;;;;6.70;99.90;;;;;;5052109;28;19954;-49
2022/05/30 04:02:49;;;;;;;;;;;6.70;99.90;;;;;;5052068;28;19912;-48
2022/05/30 04:05:18;;;;;;;;;;;6.80;99.90;;;;;;5051956;28;19924;-49
2022/05/30 04:07:44;;;;;;;;;;;6.90;99.90;;;;;;5052585;28;19931;-51
2022/05/30 04:10:09;;;;;;;;;;;7.00;99.90;;;;;;5051720;28;20349;-51
2022/05/30 04:12:36;;;;;;;;;;;7.00;99.90;;;;;;5051803;28;20272;-51
2022/05/30 04:15:01;;;;;;;;;;;7.00;99.90;;;;;;5052243;28;19905;-55
2022/05/30 04:17:27;;;;;;;;;;;7.20;99.90;;;;;;5053026;28;19912;-48
2022/05/30 04:19:53;;;;;;;;;;;7.20;99.90;;;;;;5051359;28;20343;-47
2022/05/30 04:22:19;;;;;;;;;;;7.30;99.90;;;;;;5052400;28;19909;-48
2022/05/30 04:24:45;;;;;;;;;;;7.30;99.90;;;;;;5051401;28;19905;-49
2022/05/30 04:27:10;;;;;;;;;;;7.30;99.90;;;;;;5052786;28;19939;-52
2022/05/30 04:29:36;;;;;;;;;;;7.30;99.90;;;;;;5052918;28;19947;-50
2022/05/30 04:32:02;;;;;;;;;;;7.50;99.90;;;;;;5052825;28;20300;-51
2022/05/30 04:34:28;;;;;;;;;;;7.60;99.90;;;;;;5052595;28;19909;-54
2022/05/30 04:36:54;;;;;;;;;;;7.70;99.90;;;;;;5051479;28;19911;-49
2022/05/30 04:39:19;;;;;;;;;;;7.80;99.90;;;;;;5052088;28;19954;-50
2022/05/30 04:41:45;;;;;;;;;;;7.90;99.90;;;;;;5051941;28;20263;-50
2022/05/30 04:44:10;;;;;;;;;;;7.90;99.90;;;;;;5052670;28;19921;-53
2022/05/30 04:46:36;;;;;;;;;;;7.80;99.90;;;;;;5052594;28;19951;-53
2022/05/30 04:49:01;;;;;;;;;;;8.00;99.90;;;;;;5052818;28;19995;-52
2022/05/30 04:51:27;;;;;;;;;;;8.10;99.90;;;;;;5052575;28;19905;-49
2022/05/30 04:53:52;;;;;;;;;;;8.30;99.90;;;;;;5052217;28;19905;-49
2022/05/30 04:56:19;;;;;;;;;;;8.30;99.90;;;;;;5052451;28;19955;-52
2022/05/30 04:58:46;;;;;;;;;;;8.40;99.90;;;;;;5052278;28;19909;-51
2022/05/30 05:01:12;;;;;;;;;;;8.50;99.90;;;;;;5052200;28;19958;-51
2022/05/30 05:03:38;;;;;;;;;;;8.70;99.90;;;;;;5052408;28;20046;-50
2022/05/30 05:06:14;;;;;;;;;;;8.80;99.90;;;;;;5052084;28;19916;-50
2022/05/30 05:08:58;;;;;;;;;;;8.80;99.90;;;;;;5052141;28;20264;-53
2022/05/30 05:11:25;;;;;;;;;;;9.00;99.90;;;;;;5052276;28;20269;-51
2022/05/30 05:13:51;;;;;;;;;;;9.00;99.90;;;;;;5051993;28;20363;-53
2022/05/30 05:16:18;;;;;;;;;;;9.20;99.90;;;;;;5052178;28;19912;-50
2022/05/30 05:18:43;;;;;;;;;;;9.30;99.90;;;;;;5051931;28;19931;-54
2022/05/30 05:21:19;;;;;;;;;;;9.40;99.90;;;;;;5051849;28;19905;-51
2022/05/30 05:23:45;;;;;;;;;;;9.50;99.90;;;;;;5051978;28;19936;-53
2022/05/30 05:26:11;;;;;;;;;;;9.50;99.90;;;;;;5051890;28;20293;-49
2022/05/30 05:28:37;;;;;;;;;;;9.50;99.90;;;;;;5052020;28;19901;-54
2022/05/30 05:31:02;;;;;;;;;;;9.60;99.90;;;;;;5051922;28;19905;-54
2022/05/30 05:33:28;;;;;;;;;;;9.80;99.90;;;;;;5051921;28;19900;-50
2022/05/30 05:35:54;;;;;;;;;;;9.70;99.90;;;;;;5051681;28;20280;-50
2022/05/30 05:38:19;;;;;;;;;;;9.70;99.90;;;;;;5051874;28;20275;-48
2022/05/30 05:40:45;;;;;;;;;;;9.70;99.90;;;;;;5051826;28;19905;-54
2022/05/30 05:43:11;;;;;;;;;;;9.80;99.90;;;;;;5051936;28;19905;-53
2022/05/30 05:48:40;;;;;;;;;;;10.00;99.90;;;;;;5054711;28;19911;-51
2022/05/30 05:51:05;;;;;;;;;;;10.20;99.90;;;;;;5055827;28;19907;-54
2022/05/30 05:53:31;;;;;;;;;;;10.20;99.90;;;;;;5055910;28;19911;-50
2022/05/30 05:55:56;;;;;;;;;;;10.30;99.90;;;;;;5055290;28;19904;-51
2022/05/30 05:58:22;;;;;;;;;;;10.30;99.90;;;;;;5054443;28;19909;-53
2022/05/30 06:00:47;;;;;;;;;;;10.30;99.90;;;;;;5054233;28;19962;-49
2022/05/30 06:03:13;;;;;;;;;;;10.30;99.90;;;;;;5054271;28;19901;-51
2022/05/30 06:05:39;;;;;;;;;;;10.30;99.90;;;;;;5054332;28;19904;-49
2022/05/30 06:08:05;;;;;;;;;;;10.30;99.90;;;;;;5055411;28;19966;-52
2022/05/30 06:10:33;;;;;;;;;;;10.40;99.90;;;;;;5054659;28;19940;-46
2022/05/30 06:12:58;;;;;;;;;;;10.40;99.90;;;;;;5054259;28;19912;-49
2022/05/30 06:15:24;;;;;;;;;;;10.40;99.90;;;;;;5054525;28;19905;-49
2022/05/30 06:17:50;;;;;;;;;;;10.50;99.90;;;;;;5054726;28;19909;-50
2022/05/30 06:20:16;;;;;;;;;;;10.60;99.90;;;;;;5055429;28;19947;-52
2022/05/30 06:22:42;;;;;;;;;;;10.80;99.90;;;;;;5055222;28;19935;-48
2022/05/30 06:25:08;;;;;;;;;;;11.00;99.90;;;;;;5054956;28;20234;-49
2022/05/30 06:27:34;;;;;;;;;;;11.20;99.90;;;;;;5053994;28;19950;-52
2022/05/30 06:30:00;;;;;;;;;;;11.20;99.90;;;;;;5054771;28;19905;-53
2022/05/30 06:32:26;;;;;;;;;;;11.20;99.90;;;;;;5054588;28;20356;-51
2022/05/30 06:34:52;;;;;;;;;;;11.20;99.90;;;;;;5054835;28;19904;-50
2022/05/30 06:37:17;;;;;;;;;;;11.20;99.90;;;;;;5054902;28;19908;-51
2022/05/30 06:39:43;;;;;;;;;;;11.20;99.90;;;;;;5055031;28;19904;-52
2022/05/30 06:42:09;;;;;;;;;;;11.30;99.90;;;;;;5054841;28;19912;-50
2022/05/30 06:44:36;;;;;;;;;;;11.50;99.90;;;;;;5053570;28;20359;-48
2022/05/30 06:47:02;;;;;;;;;;;11.50;99.90;;;;;;5053464;28;20256;-50
2022/05/30 06:49:27;;;;;;;;;;;11.50;99.90;;;;;;5054734;28;19908;-52
2022/05/30 06:51:53;;;;;;;;;;;11.40;99.90;;;;;;5054566;28;19912;-54
2022/05/30 06:54:20;;;;;;;;;;;11.60;99.90;;;;;;5054840;28;20003;-53
2022/05/30 06:59:30;;;;;;;;;;;11.90;99.90;;;;;;5053697;28;19912;-52
2022/05/30 07:01:55;;;;;;;;;;;11.90;99.90;;;;;;5054603;28;19911;-50
2022/05/30 07:04:21;;;;;;;;;;;11.90;99.90;;;;;;5054432;28;20307;-48
2022/05/30 07:06:46;;;;;;;;;;;11.90;99.90;;;;;;5054397;28;20176;-52
2022/05/30 07:09:13;;;;;;;;;;;11.80;99.90;;;;;;5054316;28;19936;-52
2022/05/30 07:11:39;;;;;;;;;;;12.20;99.90;;;;;;5054218;28;20003;-53
2022/05/30 07:14:06;;;;;;;;;;;12.20;99.90;;;;;;5054319;28;20423;-54
2022/05/30 07:16:31;;;;;;;;;;;12.10;99.90;;;;;;5054368;28;19911;-52
2022/05/30 07:18:57;;;;;;;;;;;12.40;99.90;;;;;;5053976;28;20493;-51
2022/05/30 07:21:22;;;;;;;;;;;12.60;99.90;;;;;;5054306;28;19908;-53
2022/05/30 07:23:49;;;;;;;;;;;12.90;99.90;;;;;;5053930;28;19962;-53
2022/05/30 07:26:20;;;;;;;;;;;12.80;99.90;;;;;;5052926;28;19912;-52
2022/05/30 07:28:46;;;;;;;;;;;12.80;99.90;;;;;;5052830;28;19909;-53
2022/05/30 07:31:13;;;;;;;;;;;12.70;99.90;;;;;;5054106;28;19905;-53
2022/05/30 07:33:40;;;;;;;;;;;12.70;99.90;;;;;;5053895;28;19900;-55
2022/05/30 07:36:09;;;;;;;;;;;12.60;99.90;;;;;;5053797;28;19943;-53
2022/05/30 07:38:35;;;;;;;;;;;12.70;99.90;;;;;;5053775;28;19913;-50
2022/05/30 07:41:03;;;;;;;;;;;12.70;99.90;;;;;;5053738;28;20526;-49
2022/05/30 07:43:29;;;;;;;;;;;12.90;99.90;;;;;;5053806;28;20417;-52
2022/05/30 07:45:54;;;;;;;;;;;13.20;99.90;;;;;;5053599;28;19905;-52
2022/05/30 07:48:20;;;;;;;;;;;13.60;99.90;;;;;;5053882;28;19911;-53
2022/05/30 07:50:46;;;;;;;;;;;13.70;99.90;;;;;;5053596;28;19931;-52
2022/05/30 07:53:11;;;;;;;;;;;14.10;99.90;;;;;;5053733;28;20003;-57
2022/05/30 07:55:39;;;;;;;;;;;14.10;99.90;;;;;;5053601;28;19940;-52
2022/05/30 07:58:05;;;;;;;;;;;14.00;99.90;;;;;;5053489;28;20007;-52
2022/05/30 08:00:32;;;;;;;;;;;14.10;99.90;;;;;;5053440;28;19987;-53
2022/05/30 08:02:58;;;;;;;;;;;14.40;99.90;;;;;;5053326;28;20264;-55
2022/05/30 08:05:24;;;;;;;;;;;14.20;99.90;;;;;;5053333;28;19905;-55
2022/05/30 08:07:52;;;;;;;;;;;14.20;99.90;;;;;;5053137;28;19912;-56
2022/05/30 08:10:18;;;;;;;;;;;14.30;99.90;;;;;;5053227;28;19905;-52
2022/05/30 08:12:43;;;;;;;;;;;13.90;99.90;;;;;;5053376;28;20410;-56
2022/05/30 08:15:09;;;;;;;;;;;13.90;99.90;;;;;;5053137;28;19967;-54
2022/05/30 08:17:35;;;;;;;;;;;14.00;99.90;;;;;;5053272;28;19913;-52
2022/05/30 08:20:02;;;;;;;;;;;14.20;99.90;;;;;;5052442;28;19904;-54
2022/05/30 08:22:27;;;;;;;;;;;14.30;99.90;;;;;;5052349;28;19912;-56
2022/05/30 08:24:53;;;;;;;;;;;14.40;99.90;;;;;;5052828;28;19996;-51
2022/05/30 08:27:19;;;;;;;;;;;14.50;99.90;;;;;;5053009;28;19940;-53
2022/05/30 08:29:45;;;;;;;;;;;14.50;99.90;;;;;;5052652;28;20401;-54
2022/05/30 08:32:12;;;;;;;;;;;14.60;99.90;;;;;;5052979;28;19911;-55
2022/05/30 08:34:39;;;;;;;;;;;14.60;99.90;;;;;;5052799;28;19951;-56
2022/05/30 08:37:05;;;;;;;;;;;14.80;99.90;;;;;;5052625;28;20373;-49
2022/05/30 08:42:18;;;;;;;;;;;15.10;99.40;;;;;;5053024;28;19911;-53
2022/05/30 08:44:43;;;;;;;;;;;15.20;98.30;;;;;;5052565;28;19905;-57
2022/05/30 08:47:15;;;;;;;;;;;15.20;97.90;;;;;;5051213;28;19928;-55
2022/05/30 08:49:52;;;;;;;;;;;15.30;97.60;;;;;;5052637;28;19982;-53
2022/05/30 08:52:21;;;;;;;;;;;15.70;99.90;;;;;;5052513;28;20300;-54
2022/05/30 08:54:55;;;;;;;;;;;15.50;96.70;;;;;;5052268;28;19981;-56
2022/05/30 08:57:26;;;;;;;;;;;15.70;97.60;;;;;;5052263;28;20271;-55
2022/05/30 09:00:07;;;;;;;;;;;15.90;95.60;;;;;;5052077;28;20344;-54
2022/05/30 09:02:36;;;;;;;;;;;15.90;97.00;;;;;;5052376;28;19904;-53
2022/05/30 09:05:10;;;;;;;;;;;16.20;95.90;;;;;;5052102;28;19995;-52
2022/05/30 09:07:43;;;;;;;;;;;16.00;93.20;;;;;;5052337;28;19905;-54
2022/05/30 09:10:27;;;;;;;;;;;16.00;94.00;;;;;;5052210;28;19935;-51
2022/05/30 09:12:59;;;;;;;;;;;16.30;97.20;;;;;;5052096;28;19908;-52
2022/05/30 09:15:27;;;;;;;;;;;16.60;97.30;;;;;;5052193;28;19912;-56
2022/05/30 09:17:56;;;;;;;;;;;16.50;94.30;;;;;;5051895;28;19940;-55
2022/05/30 09:20:22;;;;;;;;;;;16.70;94.90;;;;;;5052206;28;20360;-52
2022/05/30 09:22:48;;;;;;;;;;;16.80;93.60;;;;;;5051253;28;19917;-56
2022/05/30 09:27:59;;;;;;;;;;;16.50;93.70;;;;;;5051857;28;20280;-55
2022/05/30 09:30:30;;;;;;;;;;;16.30;94.80;;;;;;5052081;28;19905;-55
2022/05/30 09:33:08;;;;;;;;;;;16.90;94.80;;;;;;5051807;28;19905;-54
2022/05/30 09:35:34;;;;;;;;;;;16.90;93.50;;;;;;5052017;28;20299;-54
2022/05/30 09:38:06;;;;;;;;;;;17.30;94.10;;;;;;5051698;28;20356;-51
2022/05/30 09:40:51;;;;;;;;;;;17.30;92.40;;;;;;5051928;28;20388;-53
2022/05/30 09:43:38;;;;;;;;;;;17.50;91.20;;;;;;5051757;28;20338;-55
2022/05/30 09:46:23;;;;;;;;;;;17.10;91.70;;;;;;5051808;28;20003;-54
2022/05/30 09:49:13;;;;;;;;;;;17.10;93.10;;;;;;5063497;28;20037;-55
2022/05/30 09:51:41;;;;;;;;;;;17.50;94.20;;;;;;5071773;28;19904;-55
2022/05/30 09:54:12;;;;;;;;;;;17.60;92.10;;;;;;5071673;28;20268;-56
2022/05/30 09:56:42;;;;;;;;;;;17.40;92.70;;;;;;5071253;28;19915;-54
2022/05/30 09:59:26;;;;;;;;;;;17.80;91.70;;;;;;5071524;28;19948;-55
2022/05/30 10:01:52;;;;;;;;;;;17.70;90.40;;;;;;5071515;28;19904;-56
2022/05/30 10:04:30;;;;;;;;;;;17.40;91.70;;;;;;5071559;28;19904;-53
2022/05/30 10:07:15;;;;;;;;;;;17.40;90.80;;;;;;5071635;28;19905;-53
2022/05/30 10:09:50;;;;;;;;;;;17.40;92.50;;;;;;5071673;28;19905;-53
2022/05/30 10:12:26;;;;;;;;;;;17.60;91.70;;;;;;5071162;28;19912;-54
2022/05/30 10:14:51;;;;;;;;;;;17.80;91.90;;;;;;5070896;28;20350;-55
2022/05/30 10:17:26;;;;;;;;;;;17.70;91.10;;;;;;5071456;28;19912;-55
2022/05/30 10:19:52;;;;;;;;;;;17.40;90.40;;;;;;5071450;28;19943;-54
2022/05/30 10:28:39;;;;;;;;;;;18.10;90.00;;;;;;5071655;28;19957;-55
2022/05/30 10:31:13;;;;;;;;;;;18.40;89.80;;;;;;5071436;28;19995;-55
2022/05/30 10:33:54;;;;;;;;;;;18.60;90.30;;;;;;5071474;28;19905;-55
2022/05/30 10:36:38;;;;;;;;;;;18.50;84.80;;;;;;5075120;28;20443;-55
2022/05/30 10:39:07;;;;;;;;;;;18.70;85.90;;;;;;5073511;28;20486;-53
2022/05/30 10:41:32;;;;;;;;;;;18.70;87.50;;;;;;5074308;28;19905;-55
2022/05/30 10:44:01;;;;;;;;;;;18.50;84.60;;;;;;5074834;28;20027;-55
2022/05/30 10:46:47;;;;;;;;;;;18.60;86.90;;;;;;5074723;28;20407;-57
2022/05/30 10:49:14;;;;;;;;;;;18.90;82.30;;;;;;5073103;28;19904;-56
2022/05/30 10:51:48;;;;;;;;;;;19.00;83.80;;;;;;5074644;28;20574;-56
2022/05/30 10:54:17;;;;;;;;;;;18.90;82.80;;;;;;5074776;28;20383;-54
2022/05/30 10:56:47;;;;;;;;;;;19.30;81.00;;;;;;5074506;28;19904;-52
2022/05/30 10:59:32;;;;;;;;;;;19.40;78.10;;;;;;5074646;28;19999;-56
2022/05/30 11:02:00;;;;;;;;;;;19.40;76.30;;;;;;5074372;28;19908;-56
2022/05/30 11:04:33;;;;;;;;;;;19.80;77.20;;;;;;5073328;28;20360;-56
2022/05/30 11:07:16;;;;;;;;;;;20.40;79.80;;;;;;5073989;28;19905;-57
2022/05/30 11:09:46;;;;;;;;;;;20.10;77.00;;;;;;5074530;28;19911;-56
2022/05/30 11:12:24;;;;;;;;;;;20.20;79.20;;;;;;5074174;28;19908;-56
2022/05/30 11:15:01;;;;;;;;;;;20.00;78.10;;;;;;5074025;28;19909;-55
2022/05/30 11:17:47;;;;;;;;;;;19.70;74.50;;;;;;5073886;28;19913;-56
2022/05/30 11:20:19;;;;;;;;;;;19.90;72.50;;;;;;5074069;28;19909;-56
2022/05/30 11:22:46;;;;;;;;;;;20.20;76.00;;;;;;5072697;28;20007;-56
2022/05/30 11:25:13;;;;;;;;;;;20.40;77.20;;;;;;5073990;28;19904;-54
2022/05/30 11:27:59;;;;;;;;;;;19.80;76.10;;;;;;5073942;28;19912;-51
2022/05/30 11:30:44;;;;;;;;;;;20.20;76.60;;;;;;5074066;28;19911;-56
2022/05/30 11:33:28;;;;;;;;;;;20.10;75.10;;;;;;5074060;28;19905;-57
2022/05/30 11:36:12;;;;;;;;;;;20.10;74.30;;;;;;5073838;28;19948;-54
2022/05/30 11:38:44;;;;;;;;;;;20.00;73.60;;;;;;5073891;28;19909;-54
2022/05/30 11:41:22;;;;;;;;;;;20.60;74.30;;;;;;5073871;28;19908;-55
2022/05/30 11:44:03;;;;;;;;;;;20.40;76.50;;;;;;5073702;28;19912;-55
2022/05/30 11:46:35;;;;;;;;;;;20.10;70.70;;;;;;5072159;28;19904;-57
2022/05/30 11:49:13;;;;;;;;;;;20.40;73.20;;;;;;5073191;28;20346;-57
2022/05/30 11:51:38;;;;;;;;;;;21.10;72.70;;;;;;5073558;28;19905;-56
2022/05/30 11:54:24;;;;;;;;;;;21.20;68.10;;;;;;5073437;28;19930;-54
2022/05/30 11:56:50;;;;;;;;;;;21.30;69.30;;;;;;5073301;28;20269;-55
2022/05/30 11:59:21;;;;;;;;;;;21.20;70.20;;;;;;5052595;28;19916;-53
2022/05/30 12:01:49;;;;;;;;;;;21.00;68.80;;;;;;5041048;28;19908;-54
2022/05/30 12:04:15;;;;;;;;;;;20.90;69.80;;;;;;5042388;28;19954;-51
2022/05/30 12:06:43;;;;;;;;;;;21.20;66.80;;;;;;5042613;28;19908;-57
2022/05/30 12:09:20;;;;;;;;;;;21.10;65.70;;;;;;5042362;28;19915;-54
2022/05/30 12:11:45;;;;;;;;;;;20.90;68.90;;;;;;5056073;28;19955;-54
2022/05/30 12:14:14;;;;;;;;;;;20.90;68.20;;;;;;5061594;28;19947;-56
2022/05/30 12:16:42;;;;;;;;;;;21.60;66.00;;;;;;5062624;28;19995;-57
2022/05/30 12:24:39;;;;;;;;;;;23.50;60.90;;;;;;5042616;28;19970;-55
2022/05/30 12:27:24;;;;;;;;;;;24.30;58.20;;;;;;5045713;28;20121;-57
2022/05/30 12:29:50;;;;;;;;;;;24.40;55.30;;;;;;5058681;28;19909;-58
2022/05/30 12:32:23;;;;;;;;;;;25.00;54.80;;;;;;5051006;28;20402;-62
2022/05/30 12:34:57;;;;;;;;;;;25.40;52.50;;;;;;5051386;28;20264;-56
2022/05/30 12:37:44;;;;;;;;;;;25.10;48.40;;;;;;5052157;28;19908;-57
2022/05/30 12:40:12;;;;;;;;;;;26.00;53.30;;;;;;5051265;28;19912;-57
2022/05/30 12:42:42;;;;;;;;;;;26.80;48.40;;;;;;5052744;28;19904;-58
2022/05/30 12:45:26;;;;;;;;;;;27.30;50.90;;;;;;5052127;28;20039;-57
2022/05/30 12:47:54;;;;;;;;;;;27.80;47.00;;;;;;5052493;28;19905;-58
2022/05/30 12:50:32;;;;;;;;;;;27.20;44.30;;;;;;5051181;28;19911;-57
2022/05/30 12:52:59;;;;;;;;;;;27.30;44.70;;;;;;5052400;28;19904;-57
2022/05/30 12:55:32;;;;;;;;;;;26.70;44.80;;;;;;5052403;28;19962;-63
2022/05/30 12:57:58;;;;;;;;;;;26.90;44.80;;;;;;5051345;28;19909;-57
2022/05/30 13:00:36;;;;;;;;;;;27.80;42.90;;;;;;5052231;28;19995;-58
2022/05/30 13:03:03;;;;;;;;;;;27.50;45.20;;;;;;5052138;28;20253;-58
2022/05/30 13:05:36;;;;;;;;;;;27.90;40.80;;;;;;5052208;28;19957;-57
2022/05/30 13:08:02;;;;;;;;;;;27.50;43.00;;;;;;5051715;28;19905;-57
2022/05/30 13:10:47;;;;;;;;;;;27.30;40.20;;;;;;5045362;28;21016;-56
2022/05/30 13:13:16;;;;;;;;;;;27.70;45.20;;;;;;5039827;28;19909;-57
2022/05/30 13:15:45;;;;;;;;;;;27.60;44.40;;;;;;5072436;28;19908;-57
2022/05/30 13:18:15;;;;;;;;;;;26.50;43.80;;;;;;5040374;28;20007;-58
2022/05/30 13:20:57;;;;;;;;;;;26.30;44.10;;;;;;5042595;28;20452;-57
2022/05/30 13:23:28;;;;;;;;;;;25.70;43.90;;;;;;5040994;28;19924;-55
2022/05/30 13:25:53;;;;;;;;;;;25.10;43.20;;;;;;5041100;28;20761;-55
2022/05/30 13:28:22;;;;;;;;;;;24.80;46.20;;;;;;5040993;28;19909;-54
2022/05/30 13:30:48;;;;;;;;;;;25.10;45.50;;;;;;5040951;28;20260;-56
2022/05/30 13:33:14;;;;;;;;;;;26.10;44.00;;;;;;5040083;28;20287;-56
2022/05/30 13:35:40;;;;;;;;;;;26.40;44.30;;;;;;5040813;28;19909;-56
2022/05/30 13:38:08;;;;;;;;;;;27.10;41.20;;;;;;5040636;28;19917;-55
2022/05/30 13:40:37;;;;;;;;;;;27.10;43.50;;;;;;5041221;28;19908;-56
2022/05/30 13:43:04;;;;;;;;;;;26.80;43.80;;;;;;5072915;28;19943;-57
2022/05/30 13:45:31;;;;;;;;;;;26.60;42.90;;;;;;5041140;28;19917;-55
2022/05/30 13:47:58;;;;;;;;;;;26.70;42.50;;;;;;5045013;28;19919;-55
2022/05/30 13:50:25;;;;;;;;;;;26.00;43.00;;;;;;5051728;28;19908;-56
2022/05/30 13:52:50;;;;;;;;;;;25.30;40.20;;;;;;5050579;28;19905;-55
2022/05/30 13:55:18;;;;;;;;;;;24.90;43.50;;;;;;5049269;28;20475;-54
2022/05/30 13:57:44;;;;;;;;;;;24.40;42.70;;;;;;5049567;28;19915;-55
2022/05/30 14:00:15;;;;;;;;;;;23.90;43.60;;;;;;5050270;28;19904;-55
2022/05/30 14:02:45;;;;;;;;;;;23.80;44.30;;;;;;5050212;28;20256;-54
2022/05/30 14:05:12;;;;;;;;;;;23.40;44.10;;;;;;5050343;28;19912;-55
2022/05/30 14:07:44;;;;;;;;;;;22.80;43.60;;;;;;5050125;28;20256;-55
2022/05/30 14:10:14;;;;;;;;;;;22.60;44.50;;;;;;5053900;28;19905;-54
2022/05/30 14:12:45;;;;;;;;;;;22.50;45.30;;;;;;5054057;28;19996;-54
2022/05/30 14:15:20;;;;;;;;;;;22.20;46.70;;;;;;5053973;28;19912;-54
2022/05/30 14:17:48;;;;;;;;;;;22.10;45.30;;;;;;5053769;28;20259;-50
2022/05/30 14:20:16;;;;;;;;;;;22.20;46.70;;;;;;5053893;28;19905;-59
2022/05/30 14:22:52;;;;;;;;;;;22.30;50.70;;;;;;5053755;28;20332;-57
2022/05/30 14:25:38;;;;;;;;;;;22.80;47.90;;;;;;5052712;28;19954;-54
2022/05/30 14:28:22;;;;;;;;;;;22.20;47.40;;;;;;5056610;28;19909;-57
2022/05/30 14:30:48;;;;;;;;;;;21.90;48.20;;;;;;5053758;28;19948;-56
2022/05/30 14:33:17;;;;;;;;;;;21.60;48.00;;;;;;5086431;28;20311;-57
2022/05/30 14:35:43;;;;;;;;;;;21.60;50.20;;;;;;5053445;28;19948;-56
2022/05/30 14:38:10;;;;;;;;;;;21.70;49.10;;;;;;5054592;28;19957;-56
2022/05/30 14:40:41;;;;;;;;;;;21.60;47.20;;;;;;5053489;28;20370;-54
2022/05/30 14:43:29;;;;;;;;;;;21.50;49.10;;;;;;5054846;28;19992;-54
2022/05/30 14:46:00;;;;;;;;;;;21.60;48.60;;;;;;5054667;28;19905;-57
2022/05/30 14:48:26;;;;;;;;;;;21.70;49.50;;;;;;5054519;28;20400;-57
2022/05/30 14:50:54;;;;;;;;;;;21.10;46.90;;;;;;5053203;28;20004;-54
2022/05/30 14:53:22;;;;;;;;;;;20.80;48.90;;;;;;5060397;28;19938;-57
2022/05/30 14:56:09;;;;;;;;;;;21.20;50.50;;;;;;5074531;28;19927;-56
2022/05/30 14:58:45;;;;;;;;;;;20.90;50.60;;;;;;5042819;28;19940;-54
2022/05/30 15:01:11;;;;;;;;;;;20.60;49.70;;;;;;5043591;28;19921;-57
2022/05/30 15:06:25;;;;;;;;;;;20.40;51.00;;;;;;5043862;28;19923;-56